sensor_id;sensor_type;location;lat;lon;timestamp;P1;durP1;ratioP1;P2;durP2;ratioP2
35496;SDS011;21609;49.298;6.844;2023-06-22T00:02:12;5.57;;;5.13;;
35496;SDS011;21609;49.298;6.844;2023-06-22T00:04:38;6.35;;;5.47;;
35496;SDS011;21609;49.298;6.844;2023-06-22T00:07:03;5.45;;;5.05;;
35496;SDS011;21609;49.298;6.844;2023-06-22T00:09:30;5.90;;;5.43;;
35496;SDS011;21609;49.298;6.844;2023-06-22T00:11:56;6.47;;;5.88;;
35496;SDS011;21609;49.298;6.844;2023-06-22T00:14:21;5.65;;;5.20;;
35496;SDS011;21609;49.298;6.844;2023-06-22T00:16:47;5.25;;;4.85;;
35496;SDS011;21609;49.298;6.844;2023-06-22T00:19:14;6.30;;;5.68;;
35496;SDS011;21609;49.298;6.844;2023-06-22T00:21:40;6.15;;;5.55;;
35496;SDS011;21609;49.298;6.844;2023-06-22T00:24:06;5.72;;;5.32;;
35496;SDS011;21609;49.298;6.844;2023-06-22T00:26:31;5.57;;;5.18;;
35496;SDS011;21609;49.298;6.844;2023-06-22T00:28:57;5.43;;;5.03;;
35496;SDS011;21609;49.298;6.844;2023-06-22T00:31:22;6.03;;;5.53;;
35496;SDS011;21609;49.298;6.844;2023-06-22T00:33:48;6.18;;;5.68;;
35496;SDS011;21609;49.298;6.844;2023-06-22T00:36:15;5.57;;;5.18;;
35496;SDS011;21609;49.298;6.844;2023-06-22T00:38:42;5.40;;;5.00;;
35496;SDS011;21609;49.298;6.844;2023-06-22T00:41:08;6.28;;;5.78;;
35496;SDS011;21609;49.298;6.844;2023-06-22T00:43:34;6.28;;;5.78;;
35496;SDS011;21609;49.298;6.844;2023-06-22T00:45:59;5.97;;;5.47;;
35496;SDS011;21609;49.298;6.844;2023-06-22T00:48:25;5.85;;;5.45;;
35496;SDS011;21609;49.298;6.844;2023-06-22T00:50:51;5.35;;;4.95;;
35496;SDS011;21609;49.298;6.844;2023-06-22T00:53:18;6.60;;;6.03;;
35496;SDS011;21609;49.298;6.844;2023-06-22T00:55:45;7.60;;;5.72;;
35496;SDS011;21609;49.298;6.844;2023-06-22T00:58:16;5.85;;;5.35;;
35496;SDS011;21609;49.298;6.844;2023-06-22T01:00:43;6.50;;;5.93;;
35496;SDS011;21609;49.298;6.844;2023-06-22T01:03:08;5.82;;;5.38;;
35496;SDS011;21609;49.298;6.844;2023-06-22T01:05:34;6.07;;;5.53;;
35496;SDS011;21609;49.298;6.844;2023-06-22T01:10:50;6.22;;;5.63;;
35496;SDS011;21609;49.298;6.844;2023-06-22T01:16:20;5.50;;;5.10;;
35496;SDS011;21609;49.298;6.844;2023-06-22T01:21:17;7.88;;;5.93;;
35496;SDS011;21609;49.298;6.844;2023-06-22T01:26:18;5.72;;;5.32;;
35496;SDS011;21609;49.298;6.844;2023-06-22T01:28:54;6.43;;;5.60;;
35496;SDS011;21609;49.298;6.844;2023-06-22T01:31:23;6.20;;;5.68;;
35496;SDS011;21609;49.298;6.844;2023-06-22T01:33:51;7.32;;;6.72;;
35496;SDS011;21609;49.298;6.844;2023-06-22T01:36:19;6.15;;;5.68;;
35496;SDS011;21609;49.298;6.844;2023-06-22T01:38:47;6.13;;;5.63;;
35496;SDS011;21609;49.298;6.844;2023-06-22T01:41:14;6.78;;;6.18;;
35496;SDS011;21609;49.298;6.844;2023-06-22T01:43:41;6.13;;;5.53;;
35496;SDS011;21609;49.298;6.844;2023-06-22T01:46:08;5.70;;;5.30;;
35496;SDS011;21609;49.298;6.844;2023-06-22T01:48:34;6.43;;;5.90;;
35496;SDS011;21609;49.298;6.844;2023-06-22T01:51:00;6.10;;;5.68;;
35496;SDS011;21609;49.298;6.844;2023-06-22T01:53:26;5.88;;;5.38;;
35496;SDS011;21609;49.298;6.844;2023-06-22T01:55:52;7.13;;;5.60;;
35496;SDS011;21609;49.298;6.844;2023-06-22T01:58:17;5.85;;;5.35;;
35496;SDS011;21609;49.298;6.844;2023-06-22T02:00:48;6.28;;;5.78;;
35496;SDS011;21609;49.298;6.844;2023-06-22T02:03:26;6.30;;;5.80;;
35496;SDS011;21609;49.298;6.844;2023-06-22T02:06:07;6.00;;;5.57;;
35496;SDS011;21609;49.298;6.844;2023-06-22T02:08:46;6.10;;;5.68;;
35496;SDS011;21609;49.298;6.844;2023-06-22T02:11:15;6.40;;;5.90;;
35496;SDS011;21609;49.298;6.844;2023-06-22T02:13:43;6.35;;;5.85;;
35496;SDS011;21609;49.298;6.844;2023-06-22T02:16:11;6.05;;;5.60;;
35496;SDS011;21609;49.298;6.844;2023-06-22T02:18:37;6.32;;;5.78;;
35496;SDS011;21609;49.298;6.844;2023-06-22T02:21:02;6.63;;;5.93;;
35496;SDS011;21609;49.298;6.844;2023-06-22T02:23:28;5.88;;;5.45;;
35496;SDS011;21609;49.298;6.844;2023-06-22T02:25:54;6.50;;;5.90;;
35496;SDS011;21609;49.298;6.844;2023-06-22T02:28:19;5.80;;;5.40;;
35496;SDS011;21609;49.298;6.844;2023-06-22T02:30:45;6.63;;;6.03;;
35496;SDS011;21609;49.298;6.844;2023-06-22T02:33:10;6.13;;;5.35;;
35496;SDS011;21609;49.298;6.844;2023-06-22T02:35:36;7.25;;;5.53;;
35496;SDS011;21609;49.298;6.844;2023-06-22T02:38:02;6.10;;;5.65;;
35496;SDS011;21609;49.298;6.844;2023-06-22T02:40:29;6.65;;;5.90;;
35496;SDS011;21609;49.298;6.844;2023-06-22T02:42:55;7.20;;;6.60;;
35496;SDS011;21609;49.298;6.844;2023-06-22T02:45:23;6.55;;;6.03;;
35496;SDS011;21609;49.298;6.844;2023-06-22T02:47:48;6.78;;;6.28;;
35496;SDS011;21609;49.298;6.844;2023-06-22T02:50:14;5.95;;;5.47;;
35496;SDS011;21609;49.298;6.844;2023-06-22T02:52:40;6.55;;;5.95;;
35496;SDS011;21609;49.298;6.844;2023-06-22T02:55:05;6.35;;;5.75;;
35496;SDS011;21609;49.298;6.844;2023-06-22T02:57:33;6.07;;;5.57;;
35496;SDS011;21609;49.298;6.844;2023-06-22T02:59:59;5.70;;;5.30;;
35496;SDS011;21609;49.298;6.844;2023-06-22T03:02:24;6.32;;;5.75;;
35496;SDS011;21609;49.298;6.844;2023-06-22T03:04:51;7.95;;;6.15;;
35496;SDS011;21609;49.298;6.844;2023-06-22T03:07:19;5.43;;;5.03;;
35496;SDS011;21609;49.298;6.844;2023-06-22T03:09:45;6.07;;;5.65;;
35496;SDS011;21609;49.298;6.844;2023-06-22T03:12:11;6.22;;;5.70;;
35496;SDS011;21609;49.298;6.844;2023-06-22T03:14:36;6.63;;;6.03;;
35496;SDS011;21609;49.298;6.844;2023-06-22T03:17:03;11.13;;;7.05;;
35496;SDS011;21609;49.298;6.844;2023-06-22T03:19:30;8.75;;;8.02;;
35496;SDS011;21609;49.298;6.844;2023-06-22T03:21:56;9.15;;;8.18;;
35496;SDS011;21609;49.298;6.844;2023-06-22T03:24:24;8.75;;;7.88;;
35496;SDS011;21609;49.298;6.844;2023-06-22T03:26:50;9.40;;;8.27;;
35496;SDS011;21609;49.298;6.844;2023-06-22T03:29:15;7.95;;;7.30;;
35496;SDS011;21609;49.298;6.844;2023-06-22T03:31:41;7.47;;;6.57;;
35496;SDS011;21609;49.298;6.844;2023-06-22T03:34:06;7.68;;;7.00;;
35496;SDS011;21609;49.298;6.844;2023-06-22T03:36:32;6.95;;;6.25;;
35496;SDS011;21609;49.298;6.844;2023-06-22T03:38:57;7.28;;;6.53;;
35496;SDS011;21609;49.298;6.844;2023-06-22T03:41:23;6.60;;;6.10;;
35496;SDS011;21609;49.298;6.844;2023-06-22T03:43:48;7.72;;;7.03;;
35496;SDS011;21609;49.298;6.844;2023-06-22T03:46:14;6.50;;;6.00;;
35496;SDS011;21609;49.298;6.844;2023-06-22T03:48:40;6.82;;;6.20;;
35496;SDS011;21609;49.298;6.844;2023-06-22T03:51:05;6.75;;;6.15;;
35496;SDS011;21609;49.298;6.844;2023-06-22T03:53:31;6.82;;;6.32;;
35496;SDS011;21609;49.298;6.844;2023-06-22T03:55:56;7.25;;;6.65;;
35496;SDS011;21609;49.298;6.844;2023-06-22T03:58:22;7.03;;;6.47;;
35496;SDS011;21609;49.298;6.844;2023-06-22T04:00:51;7.13;;;6.53;;
35496;SDS011;21609;49.298;6.844;2023-06-22T04:03:18;6.72;;;6.22;;
35496;SDS011;21609;49.298;6.844;2023-06-22T04:05:44;6.88;;;6.28;;
35496;SDS011;21609;49.298;6.844;2023-06-22T04:08:09;6.50;;;6.07;;
35496;SDS011;21609;49.298;6.844;2023-06-22T04:10:35;6.47;;;5.97;;
35496;SDS011;21609;49.298;6.844;2023-06-22T04:13:01;6.93;;;6.43;;
35496;SDS011;21609;49.298;6.844;2023-06-22T04:15:26;6.90;;;6.40;;
35496;SDS011;21609;49.298;6.844;2023-06-22T04:17:54;7.00;;;6.50;;
35496;SDS011;21609;49.298;6.844;2023-06-22T04:20:20;6.20;;;5.72;;
35496;SDS011;21609;49.298;6.844;2023-06-22T04:22:45;6.72;;;6.13;;
35496;SDS011;21609;49.298;6.844;2023-06-22T04:25:11;6.80;;;6.20;;
35496;SDS011;21609;49.298;6.844;2023-06-22T04:27:37;8.55;;;7.75;;
35496;SDS011;21609;49.298;6.844;2023-06-22T04:30:05;7.78;;;7.13;;
35496;SDS011;21609;49.298;6.844;2023-06-22T04:32:32;8.50;;;7.80;;
35496;SDS011;21609;49.298;6.844;2023-06-22T04:35:04;10.90;;;8.20;;
35496;SDS011;21609;49.298;6.844;2023-06-22T04:37:31;8.52;;;7.82;;
35496;SDS011;21609;49.298;6.844;2023-06-22T04:39:57;9.15;;;8.45;;
35496;SDS011;21609;49.298;6.844;2023-06-22T04:42:23;9.55;;;8.25;;
35496;SDS011;21609;49.298;6.844;2023-06-22T04:44:50;8.07;;;7.47;;
35496;SDS011;21609;49.298;6.844;2023-06-22T04:47:15;8.68;;;7.97;;
35496;SDS011;21609;49.298;6.844;2023-06-22T04:49:41;8.50;;;7.43;;
35496;SDS011;21609;49.298;6.844;2023-06-22T04:52:08;9.32;;;8.13;;
35496;SDS011;21609;49.298;6.844;2023-06-22T04:54:35;9.48;;;8.57;;
35496;SDS011;21609;49.298;6.844;2023-06-22T04:57:03;8.75;;;7.93;;
35496;SDS011;21609;49.298;6.844;2023-06-22T04:59:30;8.60;;;7.93;;
35496;SDS011;21609;49.298;6.844;2023-06-22T05:04:23;7.97;;;7.45;;
35496;SDS011;21609;49.298;6.844;2023-06-22T05:06:49;8.90;;;8.05;;
35496;SDS011;21609;49.298;6.844;2023-06-22T05:09:18;8.95;;;8.15;;
35496;SDS011;21609;49.298;6.844;2023-06-22T05:11:44;8.65;;;7.88;;
35496;SDS011;21609;49.298;6.844;2023-06-22T05:14:10;8.65;;;7.93;;
35496;SDS011;21609;49.298;6.844;2023-06-22T05:16:38;9.35;;;8.52;;
35496;SDS011;21609;49.298;6.844;2023-06-22T05:21:31;10.32;;;8.68;;
35496;SDS011;21609;49.298;6.844;2023-06-22T05:23:57;8.50;;;7.65;;
35496;SDS011;21609;49.298;6.844;2023-06-22T05:26:25;8.93;;;8.13;;
35496;SDS011;21609;49.298;6.844;2023-06-22T05:28:52;8.80;;;8.10;;
35496;SDS011;21609;49.298;6.844;2023-06-22T05:31:18;8.88;;;7.93;;
35496;SDS011;21609;49.298;6.844;2023-06-22T05:33:47;8.55;;;7.75;;
35496;SDS011;21609;49.298;6.844;2023-06-22T05:36:14;9.82;;;8.27;;
35496;SDS011;21609;49.298;6.844;2023-06-22T05:38:40;8.90;;;8.15;;
35496;SDS011;21609;49.298;6.844;2023-06-22T05:41:06;8.98;;;8.18;;
35496;SDS011;21609;49.298;6.844;2023-06-22T05:43:32;8.15;;;7.45;;
35496;SDS011;21609;49.298;6.844;2023-06-22T05:45:58;8.20;;;7.38;;
35496;SDS011;21609;49.298;6.844;2023-06-22T05:48:24;8.45;;;7.65;;
35496;SDS011;21609;49.298;6.844;2023-06-22T05:50:50;9.38;;;7.65;;
35496;SDS011;21609;49.298;6.844;2023-06-22T05:53:16;8.25;;;7.25;;
35496;SDS011;21609;49.298;6.844;2023-06-22T05:55:41;8.48;;;7.78;;
35496;SDS011;21609;49.298;6.844;2023-06-22T05:58:07;7.63;;;7.03;;
35496;SDS011;21609;49.298;6.844;2023-06-22T06:00:33;8.45;;;7.75;;
35496;SDS011;21609;49.298;6.844;2023-06-22T06:02:59;8.20;;;7.40;;
35496;SDS011;21609;49.298;6.844;2023-06-22T06:05:32;11.27;;;7.80;;
35496;SDS011;21609;49.298;6.844;2023-06-22T06:07:58;9.45;;;8.43;;
35496;SDS011;21609;49.298;6.844;2023-06-22T06:10:29;10.10;;;8.13;;
35496;SDS011;21609;49.298;6.844;2023-06-22T06:12:55;8.07;;;7.25;;
35496;SDS011;21609;49.298;6.844;2023-06-22T06:15:21;8.50;;;7.38;;
35496;SDS011;21609;49.298;6.844;2023-06-22T06:17:48;7.70;;;7.05;;
35496;SDS011;21609;49.298;6.844;2023-06-22T06:20:14;8.60;;;7.80;;
35496;SDS011;21609;49.298;6.844;2023-06-22T06:22:43;7.95;;;7.15;;
35496;SDS011;21609;49.298;6.844;2023-06-22T06:25:09;7.75;;;6.95;;
35496;SDS011;21609;49.298;6.844;2023-06-22T06:27:35;8.50;;;7.78;;
35496;SDS011;21609;49.298;6.844;2023-06-22T06:30:00;8.07;;;7.45;;
35496;SDS011;21609;49.298;6.844;2023-06-22T06:32:26;8.10;;;7.30;;
35496;SDS011;21609;49.298;6.844;2023-06-22T06:34:52;8.32;;;7.55;;
35496;SDS011;21609;49.298;6.844;2023-06-22T06:37:18;11.57;;;7.80;;
35496;SDS011;21609;49.298;6.844;2023-06-22T06:39:43;8.13;;;7.40;;
35496;SDS011;21609;49.298;6.844;2023-06-22T06:42:09;8.43;;;7.72;;
35496;SDS011;21609;49.298;6.844;2023-06-22T06:44:36;8.00;;;7.30;;
35496;SDS011;21609;49.298;6.844;2023-06-22T06:47:02;8.20;;;7.53;;
35496;SDS011;21609;49.298;6.844;2023-06-22T06:49:29;7.82;;;7.10;;
35496;SDS011;21609;49.298;6.844;2023-06-22T06:51:55;8.30;;;7.60;;
35496;SDS011;21609;49.298;6.844;2023-06-22T06:54:21;7.80;;;7.13;;
35496;SDS011;21609;49.298;6.844;2023-06-22T06:56:46;10.10;;;7.30;;
35496;SDS011;21609;49.298;6.844;2023-06-22T06:59:13;7.38;;;6.72;;
35496;SDS011;21609;49.298;6.844;2023-06-22T07:01:40;7.13;;;6.53;;
35496;SDS011;21609;49.298;6.844;2023-06-22T07:04:06;6.97;;;6.38;;
35496;SDS011;21609;49.298;6.844;2023-06-22T07:06:32;7.78;;;7.00;;
35496;SDS011;21609;49.298;6.844;2023-06-22T07:08:58;6.57;;;6.07;;
35496;SDS011;21609;49.298;6.844;2023-06-22T07:11:24;7.53;;;6.88;;
35496;SDS011;21609;49.298;6.844;2023-06-22T07:13:50;8.10;;;7.50;;
35496;SDS011;21609;49.298;6.844;2023-06-22T07:16:16;7.00;;;6.50;;
35496;SDS011;21609;49.298;6.844;2023-06-22T07:18:41;7.40;;;6.70;;
35496;SDS011;21609;49.298;6.844;2023-06-22T07:21:07;6.70;;;6.10;;
35496;SDS011;21609;49.298;6.844;2023-06-22T07:23:32;6.57;;;5.97;;
35496;SDS011;21609;49.298;6.844;2023-06-22T07:25:58;7.03;;;6.40;;
35496;SDS011;21609;49.298;6.844;2023-06-22T07:28:27;7.28;;;6.57;;
35496;SDS011;21609;49.298;6.844;2023-06-22T07:30:52;7.70;;;7.10;;
35496;SDS011;21609;49.298;6.844;2023-06-22T07:33:18;6.82;;;6.32;;
35496;SDS011;21609;49.298;6.844;2023-06-22T07:35:44;6.47;;;5.88;;
35496;SDS011;21609;49.298;6.844;2023-06-22T07:38:10;7.80;;;6.88;;
35496;SDS011;21609;49.298;6.844;2023-06-22T07:40:35;7.05;;;6.45;;
35496;SDS011;21609;49.298;6.844;2023-06-22T07:43:01;6.38;;;5.97;;
35496;SDS011;21609;49.298;6.844;2023-06-22T07:45:28;7.25;;;6.57;;
35496;SDS011;21609;49.298;6.844;2023-06-22T07:47:54;6.60;;;6.10;;
35496;SDS011;21609;49.298;6.844;2023-06-22T07:50:19;6.97;;;6.45;;
35496;SDS011;21609;49.298;6.844;2023-06-22T07:52:45;6.53;;;6.13;;
35496;SDS011;21609;49.298;6.844;2023-06-22T07:55:12;7.35;;;6.75;;
35496;SDS011;21609;49.298;6.844;2023-06-22T07:57:38;7.43;;;6.20;;
35496;SDS011;21609;49.298;6.844;2023-06-22T08:00:04;6.72;;;6.13;;
35496;SDS011;21609;49.298;6.844;2023-06-22T08:02:41;6.70;;;6.10;;
35496;SDS011;21609;49.298;6.844;2023-06-22T08:05:07;7.15;;;6.55;;
35496;SDS011;21609;49.298;6.844;2023-06-22T08:07:35;6.63;;;6.13;;
35496;SDS011;21609;49.298;6.844;2023-06-22T08:10:02;6.18;;;5.75;;
35496;SDS011;21609;49.298;6.844;2023-06-22T08:12:28;6.35;;;5.80;;
35496;SDS011;21609;49.298;6.844;2023-06-22T08:14:54;6.45;;;5.95;;
35496;SDS011;21609;49.298;6.844;2023-06-22T08:17:19;6.25;;;5.75;;
35496;SDS011;21609;49.298;6.844;2023-06-22T08:19:45;6.03;;;5.60;;
35496;SDS011;21609;49.298;6.844;2023-06-22T08:22:10;6.45;;;5.95;;
35496;SDS011;21609;49.298;6.844;2023-06-22T08:24:36;6.40;;;5.90;;
35496;SDS011;21609;49.298;6.844;2023-06-22T08:27:01;6.70;;;6.10;;
35496;SDS011;21609;49.298;6.844;2023-06-22T08:29:27;6.07;;;5.57;;
35496;SDS011;21609;49.298;6.844;2023-06-22T08:31:53;7.63;;;6.72;;
35496;SDS011;21609;49.298;6.844;2023-06-22T08:34:18;6.05;;;5.55;;
35496;SDS011;21609;49.298;6.844;2023-06-22T08:36:46;5.53;;;5.05;;
35496;SDS011;21609;49.298;6.844;2023-06-22T08:39:16;5.95;;;5.45;;
35496;SDS011;21609;49.298;6.844;2023-06-22T08:41:42;6.38;;;5.88;;
35496;SDS011;21609;49.298;6.844;2023-06-22T08:44:07;6.50;;;5.93;;
35496;SDS011;21609;49.298;6.844;2023-06-22T08:46:33;6.57;;;5.97;;
35496;SDS011;21609;49.298;6.844;2023-06-22T08:49:00;5.05;;;4.75;;
35496;SDS011;21609;49.298;6.844;2023-06-22T08:51:26;6.15;;;5.68;;
35496;SDS011;21609;49.298;6.844;2023-06-22T08:53:52;4.93;;;4.60;;
35496;SDS011;21609;49.298;6.844;2023-06-22T08:56:17;5.75;;;5.35;;
35496;SDS011;21609;49.298;6.844;2023-06-22T08:58:43;6.50;;;6.00;;
35496;SDS011;21609;49.298;6.844;2023-06-22T09:01:09;6.13;;;5.63;;
35496;SDS011;21609;49.298;6.844;2023-06-22T09:03:35;5.78;;;5.38;;
35496;SDS011;21609;49.298;6.844;2023-06-22T09:06:02;6.85;;;5.70;;
35496;SDS011;21609;49.298;6.844;2023-06-22T09:08:28;6.22;;;5.80;;
35496;SDS011;21609;49.298;6.844;2023-06-22T09:10:53;5.63;;;5.22;;
35496;SDS011;21609;49.298;6.844;2023-06-22T09:13:19;6.32;;;5.82;;
35496;SDS011;21609;49.298;6.844;2023-06-22T09:15:44;5.97;;;5.47;;
35496;SDS011;21609;49.298;6.844;2023-06-22T09:18:10;6.45;;;5.95;;
35496;SDS011;21609;49.298;6.844;2023-06-22T09:20:36;6.10;;;5.60;;
35496;SDS011;21609;49.298;6.844;2023-06-22T09:23:02;6.22;;;5.72;;
35496;SDS011;21609;49.298;6.844;2023-06-22T09:25:28;5.13;;;4.72;;
35496;SDS011;21609;49.298;6.844;2023-06-22T09:27:53;5.28;;;4.93;;
35496;SDS011;21609;49.298;6.844;2023-06-22T09:30:19;5.80;;;5.40;;
35496;SDS011;21609;49.298;6.844;2023-06-22T09:32:44;5.85;;;5.45;;
35496;SDS011;21609;49.298;6.844;2023-06-22T09:35:10;6.50;;;5.90;;
35496;SDS011;21609;49.298;6.844;2023-06-22T09:37:37;5.88;;;5.47;;
35496;SDS011;21609;49.298;6.844;2023-06-22T09:40:03;5.55;;;5.15;;
35496;SDS011;21609;49.298;6.844;2023-06-22T09:42:37;6.05;;;5.55;;
35496;SDS011;21609;49.298;6.844;2023-06-22T09:45:04;6.20;;;5.70;;
35496;SDS011;21609;49.298;6.844;2023-06-22T09:47:30;6.00;;;5.50;;
35496;SDS011;21609;49.298;6.844;2023-06-22T09:49:56;5.63;;;5.22;;
35496;SDS011;21609;49.298;6.844;2023-06-22T09:52:24;6.70;;;6.07;;
35496;SDS011;21609;49.298;6.844;2023-06-22T09:54:49;6.03;;;5.60;;
35496;SDS011;21609;49.298;6.844;2023-06-22T09:57:15;5.90;;;5.40;;
35496;SDS011;21609;49.298;6.844;2023-06-22T09:59:41;6.13;;;5.40;;
35496;SDS011;21609;49.298;6.844;2023-06-22T10:02:07;6.32;;;5.82;;
35496;SDS011;21609;49.298;6.844;2023-06-22T10:04:33;6.88;;;6.35;;
35496;SDS011;21609;49.298;6.844;2023-06-22T10:06:59;5.68;;;5.07;;
35496;SDS011;21609;49.298;6.844;2023-06-22T10:09:26;5.57;;;5.07;;
35496;SDS011;21609;49.298;6.844;2023-06-22T10:11:52;5.68;;;5.20;;
35496;SDS011;21609;49.298;6.844;2023-06-22T10:14:17;5.35;;;4.95;;
35496;SDS011;21609;49.298;6.844;2023-06-22T10:16:43;6.18;;;5.70;;
35496;SDS011;21609;49.298;6.844;2023-06-22T10:19:08;5.47;;;5.07;;
35496;SDS011;21609;49.298;6.844;2023-06-22T10:21:34;7.50;;;6.18;;
35496;SDS011;21609;49.298;6.844;2023-06-22T10:24:00;5.07;;;4.68;;
35496;SDS011;21609;49.298;6.844;2023-06-22T10:26:31;6.53;;;5.95;;
35496;SDS011;21609;49.298;6.844;2023-06-22T10:28:57;4.72;;;4.43;;
35496;SDS011;21609;49.298;6.844;2023-06-22T10:31:23;5.97;;;5.47;;
35496;SDS011;21609;49.298;6.844;2023-06-22T10:33:49;5.70;;;5.28;;
35496;SDS011;21609;49.298;6.844;2023-06-22T10:36:14;5.50;;;5.10;;
35496;SDS011;21609;49.298;6.844;2023-06-22T10:38:40;5.68;;;5.18;;
35496;SDS011;21609;49.298;6.844;2023-06-22T10:41:06;6.03;;;5.53;;
35496;SDS011;21609;49.298;6.844;2023-06-22T10:43:31;6.10;;;5.63;;
35496;SDS011;21609;49.298;6.844;2023-06-22T10:45:57;5.22;;;4.82;;
35496;SDS011;21609;49.298;6.844;2023-06-22T10:48:23;6.32;;;5.82;;
35496;SDS011;21609;49.298;6.844;2023-06-22T10:50:48;5.47;;;5.07;;
35496;SDS011;21609;49.298;6.844;2023-06-22T10:53:14;5.70;;;5.25;;
35496;SDS011;21609;49.298;6.844;2023-06-22T10:55:39;5.93;;;5.38;;
35496;SDS011;21609;49.298;6.844;2023-06-22T10:58:05;6.75;;;6.15;;
35496;SDS011;21609;49.298;6.844;2023-06-22T11:00:30;5.70;;;5.20;;
35496;SDS011;21609;49.298;6.844;2023-06-22T11:02:56;6.00;;;5.50;;
35496;SDS011;21609;49.298;6.844;2023-06-22T11:05:23;5.85;;;5.30;;
35496;SDS011;21609;49.298;6.844;2023-06-22T11:07:49;4.72;;;4.43;;
35496;SDS011;21609;49.298;6.844;2023-06-22T11:10:14;5.32;;;4.93;;
35496;SDS011;21609;49.298;6.844;2023-06-22T11:12:40;5.05;;;4.65;;
35496;SDS011;21609;49.298;6.844;2023-06-22T11:15:07;4.43;;;4.13;;
35496;SDS011;21609;49.298;6.844;2023-06-22T11:17:34;4.97;;;4.57;;
35496;SDS011;21609;49.298;6.844;2023-06-22T11:19:59;5.13;;;4.72;;
35496;SDS011;21609;49.298;6.844;2023-06-22T11:22:25;5.00;;;4.60;;
35496;SDS011;21609;49.298;6.844;2023-06-22T11:24:51;5.68;;;5.28;;
35496;SDS011;21609;49.298;6.844;2023-06-22T11:27:17;5.30;;;4.82;;
35496;SDS011;21609;49.298;6.844;2023-06-22T11:29:42;4.75;;;4.35;;
35496;SDS011;21609;49.298;6.844;2023-06-22T11:32:08;4.88;;;4.57;;
35496;SDS011;21609;49.298;6.844;2023-06-22T11:34:34;5.40;;;5.00;;
35496;SDS011;21609;49.298;6.844;2023-06-22T11:36:59;5.22;;;4.82;;
35496;SDS011;21609;49.298;6.844;2023-06-22T11:39:25;5.32;;;4.93;;
35496;SDS011;21609;49.298;6.844;2023-06-22T11:41:50;5.05;;;4.63;;
35496;SDS011;21609;49.298;6.844;2023-06-22T11:44:16;5.25;;;4.85;;
35496;SDS011;21609;49.298;6.844;2023-06-22T11:46:42;6.43;;;5.13;;
35496;SDS011;21609;49.298;6.844;2023-06-22T11:49:07;5.05;;;4.65;;
35496;SDS011;21609;49.298;6.844;2023-06-22T11:51:33;5.68;;;5.20;;
35496;SDS011;21609;49.298;6.844;2023-06-22T11:53:58;5.07;;;4.75;;
35496;SDS011;21609;49.298;6.844;2023-06-22T11:56:24;5.15;;;4.75;;
35496;SDS011;21609;49.298;6.844;2023-06-22T11:58:50;8.90;;;5.50;;
35496;SDS011;21609;49.298;6.844;2023-06-22T12:01:15;5.90;;;5.43;;
35496;SDS011;21609;49.298;6.844;2023-06-22T12:03:41;5.30;;;4.90;;
35496;SDS011;21609;49.298;6.844;2023-06-22T12:06:09;5.13;;;4.72;;
35496;SDS011;21609;49.298;6.844;2023-06-22T12:08:34;5.03;;;4.65;;
35496;SDS011;21609;49.298;6.844;2023-06-22T12:11:00;5.38;;;4.90;;
35496;SDS011;21609;49.298;6.844;2023-06-22T12:13:25;5.68;;;4.90;;
35496;SDS011;21609;49.298;6.844;2023-06-22T12:15:51;6.10;;;5.50;;
35496;SDS011;21609;49.298;6.844;2023-06-22T12:18:19;6.28;;;5.18;;
35496;SDS011;21609;49.298;6.844;2023-06-22T12:20:49;5.80;;;5.20;;
35496;SDS011;21609;49.298;6.844;2023-06-22T12:23:14;6.75;;;5.10;;
35496;SDS011;21609;49.298;6.844;2023-06-22T12:25:40;5.70;;;5.20;;
35496;SDS011;21609;49.298;6.844;2023-06-22T12:28:06;5.57;;;4.78;;
35496;SDS011;21609;49.298;6.844;2023-06-22T12:30:34;8.50;;;5.88;;
35496;SDS011;21609;49.298;6.844;2023-06-22T12:33:00;5.68;;;5.13;;
35496;SDS011;21609;49.298;6.844;2023-06-22T12:35:25;7.93;;;5.15;;
35496;SDS011;21609;49.298;6.844;2023-06-22T12:37:51;7.03;;;5.57;;
35496;SDS011;21609;49.298;6.844;2023-06-22T12:40:17;7.97;;;5.65;;
35496;SDS011;21609;49.298;6.844;2023-06-22T12:42:44;5.72;;;5.22;;
35496;SDS011;21609;49.298;6.844;2023-06-22T12:45:10;6.25;;;5.65;;
35496;SDS011;21609;49.298;6.844;2023-06-22T12:47:36;5.30;;;4.80;;
35496;SDS011;21609;49.298;6.844;2023-06-22T12:50:01;5.57;;;5.07;;
35496;SDS011;21609;49.298;6.844;2023-06-22T12:52:29;5.60;;;5.00;;
35496;SDS011;21609;49.298;6.844;2023-06-22T12:54:55;6.50;;;4.78;;
35496;SDS011;21609;49.298;6.844;2023-06-22T12:57:20;6.25;;;5.20;;
35496;SDS011;21609;49.298;6.844;2023-06-22T12:59:46;5.85;;;4.60;;
35496;SDS011;21609;49.298;6.844;2023-06-22T13:02:12;6.53;;;5.25;;
35496;SDS011;21609;49.298;6.844;2023-06-22T13:04:38;7.05;;;4.93;;
35496;SDS011;21609;49.298;6.844;2023-06-22T13:07:04;11.23;;;5.72;;
35496;SDS011;21609;49.298;6.844;2023-06-22T13:09:29;5.15;;;4.75;;
35496;SDS011;21609;49.298;6.844;2023-06-22T13:11:56;5.50;;;5.00;;
35496;SDS011;21609;49.298;6.844;2023-06-22T13:14:21;10.30;;;5.93;;
35496;SDS011;21609;49.298;6.844;2023-06-22T13:16:47;6.30;;;5.15;;
35496;SDS011;21609;49.298;6.844;2023-06-22T13:19:12;7.55;;;5.07;;
35496;SDS011;21609;49.298;6.844;2023-06-22T13:21:38;6.85;;;4.35;;
35496;SDS011;21609;49.298;6.844;2023-06-22T13:24:04;4.97;;;4.35;;
35496;SDS011;21609;49.298;6.844;2023-06-22T13:26:31;7.97;;;4.63;;
35496;SDS011;21609;49.298;6.844;2023-06-22T13:28:56;6.90;;;4.32;;
35496;SDS011;21609;49.298;6.844;2023-06-22T13:31:22;5.22;;;4.72;;
35496;SDS011;21609;49.298;6.844;2023-06-22T13:33:47;7.03;;;4.47;;
35496;SDS011;21609;49.298;6.844;2023-06-22T13:36:13;8.73;;;5.13;;
35496;SDS011;21609;49.298;6.844;2023-06-22T13:38:39;5.20;;;4.75;;
35496;SDS011;21609;49.298;6.844;2023-06-22T13:41:05;10.35;;;5.28;;
35496;SDS011;21609;49.298;6.844;2023-06-22T13:43:31;7.63;;;4.45;;
35496;SDS011;21609;49.298;6.844;2023-06-22T13:45:57;9.27;;;4.97;;
35496;SDS011;21609;49.298;6.844;2023-06-22T13:48:22;5.13;;;4.20;;
35496;SDS011;21609;49.298;6.844;2023-06-22T13:50:50;5.15;;;4.63;;
35496;SDS011;21609;49.298;6.844;2023-06-22T13:53:16;7.22;;;4.97;;
35496;SDS011;21609;49.298;6.844;2023-06-22T13:55:42;8.38;;;5.20;;
35496;SDS011;21609;49.298;6.844;2023-06-22T13:58:07;5.00;;;4.10;;
35496;SDS011;21609;49.298;6.844;2023-06-22T14:00:33;7.80;;;4.85;;
35496;SDS011;21609;49.298;6.844;2023-06-22T14:02:58;9.30;;;4.43;;
35496;SDS011;21609;49.298;6.844;2023-06-22T14:05:24;7.25;;;4.68;;
35496;SDS011;21609;49.298;6.844;2023-06-22T14:07:49;5.28;;;4.22;;
35496;SDS011;21609;49.298;6.844;2023-06-22T14:10:15;8.85;;;4.38;;
35496;SDS011;21609;49.298;6.844;2023-06-22T14:12:40;6.28;;;4.10;;
35496;SDS011;21609;49.298;6.844;2023-06-22T14:15:06;4.65;;;4.25;;
35496;SDS011;21609;49.298;6.844;2023-06-22T14:17:32;6.78;;;4.60;;
35496;SDS011;21609;49.298;6.844;2023-06-22T14:19:57;6.88;;;4.35;;
35496;SDS011;21609;49.298;6.844;2023-06-22T14:22:23;6.03;;;4.28;;
35496;SDS011;21609;49.298;6.844;2023-06-22T14:24:49;8.15;;;4.28;;
35496;SDS011;21609;49.298;6.844;2023-06-22T14:27:14;5.35;;;4.13;;
35496;SDS011;21609;49.298;6.844;2023-06-22T14:29:40;4.85;;;3.65;;
35496;SDS011;21609;49.298;6.844;2023-06-22T14:32:06;4.40;;;4.00;;
35496;SDS011;21609;49.298;6.844;2023-06-22T14:34:33;6.60;;;4.00;;
35496;SDS011;21609;49.298;6.844;2023-06-22T14:37:01;4.47;;;3.55;;
35496;SDS011;21609;49.298;6.844;2023-06-22T14:39:27;4.60;;;3.53;;
35496;SDS011;21609;49.298;6.844;2023-06-22T14:41:52;8.88;;;4.32;;
35496;SDS011;21609;49.298;6.844;2023-06-22T14:44:18;5.50;;;4.15;;
35496;SDS011;21609;49.298;6.844;2023-06-22T14:46:43;5.88;;;4.20;;
35496;SDS011;21609;49.298;6.844;2023-06-22T14:49:09;5.28;;;3.50;;
35496;SDS011;21609;49.298;6.844;2023-06-22T14:51:34;4.20;;;3.80;;
35496;SDS011;21609;49.298;6.844;2023-06-22T14:54:00;5.80;;;3.75;;
35496;SDS011;21609;49.298;6.844;2023-06-22T14:56:25;4.93;;;3.88;;
35496;SDS011;21609;49.298;6.844;2023-06-22T14:58:51;4.70;;;3.40;;